Time;durP1;ratioP1;P1;durP2;ratioP2;P2;SDS_P1;SDS_P2;PMS_P1;PMS_P2;Temp;Humidity;BMP_temperature;BMP_pressure;BME280_temperature;BME280_humidity;BME280_pressure;Samples;Min_cycle;Max_cycle;Signal;HPM_P1;HPM_P2
2021/03/05 00:00:51;;;;;;;16.90;10.23;;;6.90;88.00;;;;;;5107486;28;20439;-76
2021/03/05 00:03:18;;;;;;;18.52;11.27;;;6.90;88.30;;;;;;5106682;28;20426;-78
2021/03/05 00:05:46;;;;;;;17.27;10.52;;;6.90;88.60;;;;;;5106768;28;20431;-76
2021/03/05 00:08:15;;;;;;;18.08;10.75;;;6.90;88.90;;;;;;5104752;28;20427;-78
2021/03/05 00:10:44;;;;;;;16.60;10.77;;;6.90;89.10;;;;;;5105627;28;20490;-75
2021/03/05 00:13:13;;;;;;;19.08;11.40;;;6.90;89.30;;;;;;5105428;28;20424;-78
2021/03/05 00:15:45;;;;;;;17.80;11.65;;;6.90;89.40;;;;;;5106888;28;20424;-77
2021/03/05 00:18:12;;;;;;;18.25;11.40;;;6.90;89.70;;;;;;5103955;28;20477;-77
2021/03/05 00:20:42;;;;;;;19.20;11.45;;;6.80;89.80;;;;;;5107573;28;20435;-77
2021/03/05 00:23:12;;;;;;;23.60;12.07;;;6.80;89.90;;;;;;5104366;28;20433;-78
2021/03/05 00:25:39;;;;;;;17.90;11.27;;;6.80;90.10;;;;;;5106130;28;20432;-77
2021/03/05 00:28:07;;;;;;;19.60;11.32;;;6.80;90.10;;;;;;5102397;27;21303;-76
2021/03/05 00:30:36;;;;;;;20.63;11.30;;;6.80;90.20;;;;;;5101746;28;20776;-76
2021/03/05 00:33:08;;;;;;;20.13;11.10;;;6.80;90.20;;;;;;5102796;28;20757;-77
2021/03/05 00:35:45;;;;;;;19.90;11.05;;;6.70;90.30;;;;;;5105608;28;20416;-77
2021/03/05 00:38:14;;;;;;;19.07;10.80;;;6.70;90.30;;;;;;5106875;28;20513;-77
2021/03/05 00:40:44;;;;;;;16.42;10.73;;;6.70;90.50;;;;;;5107634;28;20444;-76
2021/03/05 00:43:12;;;;;;;18.25;10.85;;;6.70;90.50;;;;;;5104984;28;20457;-77
2021/03/05 00:45:44;;;;;;;17.25;10.57;;;6.70;90.50;;;;;;5107134;28;20458;-77
2021/03/05 00:48:11;;;;;;;17.02;10.20;;;6.70;90.60;;;;;;5104512;28;20420;-77
2021/03/05 00:50:43;;;;;;;19.95;10.82;;;6.70;90.60;;;;;;5105725;28;20427;-77
2021/03/05 00:53:11;;;;;;;18.48;10.00;;;6.70;90.60;;;;;;5119773;27;20966;-76
2021/03/05 00:55:41;;;;;;;19.85;9.93;;;6.70;90.70;;;;;;5104863;28;20474;-77
2021/03/05 00:58:15;;;;;;;20.25;10.52;;;6.70;90.70;;;;;;5106628;28;20430;-77
2021/03/05 01:00:43;;;;;;;15.88;9.60;;;6.60;90.70;;;;;;5103099;28;20428;-75
2021/03/05 01:03:13;;;;;;;20.17;10.18;;;6.60;90.70;;;;;;5103305;28;20429;-76
2021/03/05 01:05:41;;;;;;;20.00;10.10;;;6.70;90.70;;;;;;5103363;28;20921;-76
2021/03/05 01:08:14;;;;;;;16.75;9.43;;;6.70;90.70;;;;;;5101794;28;20424;-77
2021/03/05 01:10:51;;;;;;;20.73;9.57;;;6.70;90.70;;;;;;5105178;28;20432;-77
2021/03/05 01:13:19;;;;;;;18.67;9.25;;;6.60;90.70;;;;;;5104852;28;20430;-78
2021/03/05 01:15:47;;;;;;;21.27;9.38;;;6.60;90.80;;;;;;5106185;28;21213;-76
2021/03/05 01:18:20;;;;;;;19.08;9.07;;;6.60;90.80;;;;;;5103053;28;20425;-76
2021/03/05 01:20:49;;;;;;;16.42;8.52;;;6.60;91.10;;;;;;5105608;28;20432;-77
2021/03/05 01:23:17;;;;;;;17.02;8.30;;;6.60;90.70;;;;;;5103544;28;20464;-76
2021/03/05 01:25:44;;;;;;;15.38;7.57;;;6.60;90.60;;;;;;5106293;28;20425;-76
2021/03/05 01:28:12;;;;;;;17.13;7.50;;;6.50;90.40;;;;;;5102563;28;20414;-77
2021/03/05 01:30:55;;;;;;;19.08;8.07;;;6.60;90.30;;;;;;5099378;28;20410;-77
2021/03/05 01:33:22;;;;;;;18.02;7.35;;;6.50;90.20;;;;;;5093337;28;20428;-76
2021/03/05 01:35:56;;;;;;;16.20;7.05;;;6.50;90.20;;;;;;5104885;28;20501;-76
2021/03/05 01:38:25;;;;;;;16.10;6.43;;;6.50;90.10;;;;;;5104689;28;20423;-75
2021/03/05 01:41:00;;;;;;;16.05;6.15;;;6.50;90.00;;;;;;5105699;28;20416;-76
2021/03/05 01:43:39;;;;;;;15.05;5.45;;;6.40;89.80;;;;;;5098203;28;20436;-76
2021/03/05 01:46:09;;;;;;;19.27;5.18;;;6.40;89.50;;;;;;5103529;28;20425;-77
2021/03/05 01:48:41;;;;;;;16.15;5.07;;;6.40;89.10;;;;;;5104303;28;20485;-77
2021/03/05 01:51:13;;;;;;;19.17;4.80;;;6.40;88.90;;;;;;5105301;28;20420;-77
2021/03/05 01:53:44;;;;;;;19.80;4.47;;;6.40;88.80;;;;;;5104001;28;20434;-75
2021/03/05 01:56:32;;;;;;;16.60;4.30;;;6.40;88.50;;;;;;5103560;28;20420;-76
2021/03/05 01:59:00;;;;;;;17.50;4.03;;;6.40;88.30;;;;;;5102577;28;20423;-76
2021/03/05 02:01:31;;;;;;;21.92;4.15;;;6.30;88.20;;;;;;5105018;28;20484;-76
2021/03/05 02:04:08;;;;;;;17.50;3.50;;;6.30;88.00;;;;;;5103628;28;20424;-76
2021/03/05 02:06:41;;;;;;;17.17;3.45;;;6.30;88.00;;;;;;5103970;28;20513;-77
2021/03/05 02:09:09;;;;;;;16.48;3.60;;;6.30;88.10;;;;;;5098951;28;20441;-76
2021/03/05 02:11:37;;;;;;;14.68;3.30;;;6.30;88.10;;;;;;5105491;28;20504;-76
2021/03/05 02:14:07;;;;;;;18.83;3.80;;;6.30;88.20;;;;;;5105040;28;20447;-76
2021/03/05 02:16:46;;;;;;;17.40;3.20;;;6.30;88.20;;;;;;5106146;27;20807;-76
2021/03/05 02:19:51;;;;;;;21.35;3.20;;;6.20;88.10;;;;;;5106974;28;20446;-75
2021/03/05 02:23:10;;;;;;;15.05;3.13;;;6.20;88.10;;;;;;5109470;28;20481;-76
2021/03/05 02:26:07;;;;;;;19.35;2.70;;;6.20;88.10;;;;;;5065340;28;20967;-76
2021/03/05 02:28:59;;;;;;;14.77;2.80;;;6.20;88.50;;;;;;5054132;28;20439;-75
2021/03/05 02:31:32;;;;;;;20.58;2.85;;;6.20;88.40;;;;;;5104015;28;20459;-75
2021/03/05 02:34:06;;;;;;;16.42;2.72;;;6.20;88.10;;;;;;5102886;28;20438;-76
2021/03/05 02:36:36;;;;;;;19.70;3.07;;;6.10;87.90;;;;;;5109901;27;20424;-75
2021/03/05 02:39:10;;;;;;;17.83;3.00;;;6.10;88.10;;;;;;5109739;27;20437;-75
2021/03/05 02:41:43;;;;;;;19.38;3.22;;;6.10;88.10;;;;;;5103943;28;20432;-75
2021/03/05 02:44:17;;;;;;;14.30;2.70;;;6.10;88.00;;;;;;5107006;28;20872;-76
2021/03/05 02:46:45;;;;;;;20.03;3.27;;;6.10;88.10;;;;;;5108412;28;20434;-75
2021/03/05 02:49:18;;;;;;;19.73;3.22;;;6.10;88.10;;;;;;5107021;28;20523;-76
2021/03/05 02:51:49;;;;;;;13.23;2.78;;;6.10;88.00;;;;;;5108124;28;20499;-76
2021/03/05 02:54:19;;;;;;;16.25;2.50;;;6.00;88.00;;;;;;5106500;28;20424;-76
2021/03/05 02:56:47;;;;;;;16.67;2.90;;;6.00;87.80;;;;;;5107449;28;20947;-75
2021/03/05 02:59:21;;;;;;;21.55;3.40;;;6.00;87.80;;;;;;5107625;28;20423;-76
2021/03/05 03:01:54;;;;;;;15.10;2.70;;;6.00;87.70;;;;;;5124226;27;20434;-77
2021/03/05 03:04:27;;;;;;;17.73;2.60;;;6.00;87.40;;;;;;5105763;28;20455;-76
2021/03/05 03:07:04;;;;;;;18.58;2.78;;;6.00;87.30;;;;;;5107002;28;20412;-78
2021/03/05 03:09:32;;;;;;;16.77;3.10;;;6.00;87.10;;;;;;5106587;28;20428;-77
2021/03/05 03:12:07;;;;;;;16.80;3.28;;;5.90;86.80;;;;;;5109269;28;20752;-77
2021/03/05 03:14:41;;;;;;;17.27;3.00;;;5.90;86.70;;;;;;5105496;28;20431;-77
2021/03/05 03:17:11;;;;;;;18.80;3.10;;;5.90;86.70;;;;;;5107198;28;20503;-76
2021/03/05 03:19:39;;;;;;;20.20;2.85;;;5.90;86.60;;;;;;5107111;28;20489;-78
2021/03/05 03:22:06;;;;;;;16.67;2.72;;;5.90;86.60;;;;;;5109548;28;20420;-77
2021/03/05 03:24:39;;;;;;;19.30;3.13;;;5.90;86.60;;;;;;5104812;28;20788;-77
2021/03/05 03:27:12;;;;;;;23.38;3.28;;;5.90;86.60;;;;;;5104681;28;20415;-77
2021/03/05 03:29:42;;;;;;;18.15;2.67;;;5.80;86.60;;;;;;5103309;28;20448;-76
2021/03/05 03:32:11;;;;;;;18.58;2.95;;;5.80;86.60;;;;;;5106212;28;20477;-77
2021/03/05 03:34:38;;;;;;;13.85;2.90;;;5.80;86.70;;;;;;5104105;28;20993;-75
2021/03/05 03:37:05;;;;;;;17.08;2.22;;;5.80;86.70;;;;;;5104831;28;20408;-76
2021/03/05 03:39:32;;;;;;;13.90;2.40;;;5.80;86.90;;;;;;5107438;28;20890;-77
2021/03/05 03:42:01;;;;;;;14.47;2.50;;;5.80;86.90;;;;;;5107380;28;20416;-77
2021/03/05 03:44:28;;;;;;;15.93;2.15;;;5.80;87.10;;;;;;5107371;28;20522;-76
2021/03/05 03:46:56;;;;;;;15.98;2.55;;;5.80;87.10;;;;;;5107694;28;20416;-76
2021/03/05 03:49:30;;;;;;;15.90;2.30;;;5.70;86.90;;;;;;5106310;28;20964;-77
2021/03/05 03:52:03;;;;;;;16.20;2.47;;;5.70;87.00;;;;;;5105929;28;20459;-77
2021/03/05 03:54:35;;;;;;;16.48;2.03;;;5.70;87.20;;;;;;5104376;28;20442;-76
2021/03/05 03:57:06;;;;;;;17.75;2.70;;;5.70;87.20;;;;;;5104852;27;20404;-77
2021/03/05 03:59:35;;;;;;;17.92;2.30;;;5.70;87.30;;;;;;5105188;28;20432;-76
2021/03/05 04:02:06;;;;;;;15.80;2.28;;;5.70;87.30;;;;;;5103284;28;20423;-78
2021/03/05 04:04:36;;;;;;;15.77;2.50;;;5.70;87.30;;;;;;5104746;28;20437;-78
2021/03/05 04:07:03;;;;;;;12.30;2.13;;;5.70;87.30;;;;;;5101865;27;22260;-76
2021/03/05 04:09:32;;;;;;;14.90;2.20;;;5.70;87.30;;;;;;5101312;28;20462;-77
2021/03/05 04:12:00;;;;;;;17.17;2.40;;;5.60;87.20;;;;;;5108478;28;20772;-77
2021/03/05 04:14:29;;;;;;;15.27;2.20;;;5.60;87.30;;;;;;5106010;28;20477;-78
2021/03/05 04:17:02;;;;;;;13.55;2.00;;;5.60;87.30;;;;;;5106736;28;20428;-77
2021/03/05 04:19:32;;;;;;;13.25;2.53;;;5.60;87.30;;;;;;5105053;28;20507;-77
2021/03/05 04:22:01;;;;;;;19.33;2.78;;;5.60;87.30;;;;;;5119348;27;20460;-76
2021/03/05 04:24:27;;;;;;;16.67;2.40;;;5.60;87.20;;;;;;5104799;27;20528;-76
2021/03/05 04:26:54;;;;;;;18.83;2.40;;;5.60;87.10;;;;;;5104840;28;20430;-75
2021/03/05 04:29:31;;;;;;;15.07;2.38;;;5.60;87.20;;;;;;5104549;28;20426;-76
2021/03/05 04:32:01;;;;;;;13.23;2.20;;;5.50;87.10;;;;;;5106983;28;20436;-77
2021/03/05 04:34:31;;;;;;;15.68;2.22;;;5.50;87.10;;;;;;5106517;28;20432;-78
2021/03/05 04:37:04;;;;;;;14.63;2.60;;;5.50;87.10;;;;;;5103976;28;20447;-77
2021/03/05 04:39:33;;;;;;;13.95;2.30;;;5.50;87.10;;;;;;5103700;28;20459;-76
2021/03/05 04:42:06;;;;;;;18.73;2.50;;;5.50;87.10;;;;;;5104722;28;20509;-78
2021/03/05 04:44:33;;;;;;;15.55;2.65;;;5.50;87.10;;;;;;5104100;28;20427;-76
2021/03/05 04:47:02;;;;;;;14.30;2.60;;;5.50;87.20;;;;;;5100166;28;20412;-77
2021/03/05 04:49:29;;;;;;;13.35;2.13;;;5.50;87.20;;;;;;5103558;28;20434;-75
2021/03/05 04:51:55;;;;;;;16.40;2.40;;;5.50;87.10;;;;;;5102560;28;20418;-76
2021/03/05 04:54:23;;;;;;;12.98;2.47;;;5.50;87.10;;;;;;5106576;28;20803;-75
2021/03/05 04:56:50;;;;;;;14.70;2.65;;;5.40;87.20;;;;;;5105227;28;20412;-76
2021/03/05 04:59:16;;;;;;;15.27;2.40;;;5.40;87.10;;;;;;5105183;28;20454;-75
2021/03/05 05:01:42;;;;;;;14.85;2.10;;;5.40;87.20;;;;;;5104400;28;20923;-76
2021/03/05 05:04:09;;;;;;;14.95;2.42;;;5.40;87.30;;;;;;5103893;28;20473;-75
2021/03/05 05:06:35;;;;;;;15.32;2.30;;;5.40;87.30;;;;;;5106673;28;20459;-75
2021/03/05 05:09:02;;;;;;;14.55;2.30;;;5.40;87.40;;;;;;5103287;28;20492;-76
2021/03/05 05:11:29;;;;;;;16.63;2.30;;;5.40;87.50;;;;;;5106635;28;20419;-75
2021/03/05 05:13:56;;;;;;;16.15;2.50;;;5.40;87.60;;;;;;5103801;28;20412;-77
2021/03/05 05:16:22;;;;;;;16.20;2.40;;;5.40;87.60;;;;;;5103521;28;20789;-75
2021/03/05 05:18:48;;;;;;;14.33;2.33;;;5.40;87.70;;;;;;5106598;28;20454;-75
2021/03/05 05:21:15;;;;;;;13.73;2.67;;;5.40;87.80;;;;;;5102432;28;20424;-76
2021/03/05 05:23:41;;;;;;;14.70;2.47;;;5.40;87.80;;;;;;5103559;28;20431;-75
2021/03/05 05:26:07;;;;;;;13.85;2.55;;;5.30;87.70;;;;;;5103948;28;20420;-75
2021/03/05 05:28:34;;;;;;;12.80;2.45;;;5.30;87.80;;;;;;5106684;28;20415;-76
2021/03/05 05:31:01;;;;;;;17.25;2.40;;;5.30;87.90;;;;;;5103142;28;20466;-76
2021/03/05 05:33:27;;;;;;;15.57;2.40;;;5.30;87.80;;;;;;5105855;28;20940;-75
2021/03/05 05:35:53;;;;;;;16.63;2.88;;;5.30;87.90;;;;;;5103681;28;20440;-76
2021/03/05 05:38:20;;;;;;;11.80;2.70;;;5.30;88.00;;;;;;5106076;28;20419;-76
2021/03/05 05:40:46;;;;;;;17.13;2.70;;;5.30;88.00;;;;;;5103719;28;20574;-75
2021/03/05 05:43:12;;;;;;;12.27;2.30;;;5.30;88.00;;;;;;5104611;28;20760;-75
2021/03/05 05:45:39;;;;;;;17.47;2.63;;;5.20;88.00;;;;;;5102922;28;20427;-77
2021/03/05 05:48:11;;;;;;;18.13;2.90;;;5.20;88.20;;;;;;5101783;28;20474;-75
2021/03/05 05:50:39;;;;;;;14.32;2.50;;;5.20;88.20;;;;;;5104849;28;20428;-76
2021/03/05 05:53:07;;;;;;;14.38;2.38;;;5.20;88.30;;;;;;5109725;27;20536;-77
2021/03/05 05:55:34;;;;;;;15.18;2.67;;;5.20;88.30;;;;;;5108942;28;20897;-80
2021/03/05 05:58:01;;;;;;;15.80;2.80;;;5.20;88.40;;;;;;5112806;28;20418;-79
2021/03/05 06:00:28;;;;;;;15.02;2.45;;;5.20;88.60;;;;;;5114773;28;20948;-77
2021/03/05 06:02:55;;;;;;;19.38;3.13;;;5.20;88.70;;;;;;5114222;28;20415;-77
2021/03/05 06:05:21;;;;;;;20.15;3.33;;;5.20;88.90;;;;;;5113438;28;20404;-78
2021/03/05 06:07:48;;;;;;;14.45;2.90;;;5.20;89.20;;;;;;5113513;28;20442;-78
2021/03/05 06:10:18;;;;;;;16.85;3.00;;;5.20;89.40;;;;;;5111447;28;20424;-76
2021/03/05 06:12:47;;;;;;;19.70;3.10;;;5.20;89.60;;;;;;5112795;28;20416;-74
2021/03/05 06:15:16;;;;;;;18.35;3.70;;;5.20;89.60;;;;;;5112395;28;20424;-78
2021/03/05 06:17:44;;;;;;;14.43;3.30;;;5.20;89.80;;;;;;5113659;28;20419;-78
2021/03/05 06:20:14;;;;;;;15.33;2.97;;;5.10;89.90;;;;;;5113124;28;20407;-77
2021/03/05 06:22:40;;;;;;;19.75;3.28;;;5.10;90.00;;;;;;5113955;27;20420;-77
2021/03/05 06:25:09;;;;;;;16.30;3.70;;;5.10;90.00;;;;;;5113754;28;20411;-77
2021/03/05 06:27:38;;;;;;;16.33;3.30;;;5.10;90.00;;;;;;5111304;28;20420;-77
2021/03/05 06:30:07;;;;;;;17.17;3.67;;;5.20;90.00;;;;;;5127954;27;20412;-77
2021/03/05 06:32:39;;;;;;;20.15;3.90;;;5.20;90.10;;;;;;5113204;28;20435;-80
2021/03/05 06:35:07;;;;;;;16.15;3.10;;;5.20;90.10;;;;;;5114164;28;20400;-81
2021/03/05 06:37:46;;;;;;;17.05;3.60;;;5.20;90.00;;;;;;5113954;28;20431;-81
2021/03/05 06:40:13;;;;;;;17.70;3.20;;;5.20;90.00;;;;;;5113825;28;20415;-80
2021/03/05 06:42:48;;;;;;;20.15;3.00;;;5.20;90.00;;;;;;5115129;28;20428;-83
2021/03/05 06:45:16;;;;;;;19.93;3.00;;;5.20;90.00;;;;;;5113242;28;20427;-78
2021/03/05 06:48:01;;;;;;;16.08;2.95;;;5.20;90.00;;;;;;5111656;28;20446;-77
2021/03/05 06:50:28;;;;;;;13.20;2.55;;;5.20;90.00;;;;;;5112170;28;20887;-78
2021/03/05 06:52:55;;;;;;;15.70;2.85;;;5.20;90.00;;;;;;5113379;28;20485;-78
2021/03/05 06:55:21;;;;;;;11.67;2.60;;;5.20;90.00;;;;;;5110767;28;20420;-76
2021/03/05 06:57:48;;;;;;;21.73;3.30;;;5.20;90.00;;;;;;5110204;28;20420;-76
2021/03/05 07:00:17;;;;;;;17.70;2.83;;;5.20;90.00;;;;;;5111390;28;20408;-77
2021/03/05 07:02:44;;;;;;;17.10;2.92;;;5.20;90.00;;;;;;5112887;28;20408;-80
2021/03/05 07:05:11;;;;;;;10.98;2.42;;;5.20;90.00;;;;;;5111110;28;20419;-75
2021/03/05 07:07:42;;;;;;;15.95;2.80;;;5.20;89.80;;;;;;5111897;28;20423;-78
2021/03/05 07:10:12;;;;;;;15.93;3.17;;;5.20;89.50;;;;;;5109183;28;20416;-77
2021/03/05 07:12:59;;;;;;;14.38;3.05;;;5.20;89.20;;;;;;5112462;28;20408;-78
2021/03/05 07:15:25;;;;;;;20.37;3.17;;;5.20;89.00;;;;;;5109618;28;20504;-79
2021/03/05 07:17:52;;;;;;;14.85;2.63;;;5.20;88.90;;;;;;5109632;28;20416;-78
2021/03/05 07:20:18;;;;;;;14.77;2.40;;;5.20;88.90;;;;;;5108655;28;20423;-75
2021/03/05 07:22:48;;;;;;;12.15;2.80;;;5.30;88.40;;;;;;5110381;28;20452;-77
2021/03/05 07:25:17;;;;;;;11.20;2.33;;;5.30;88.20;;;;;;5110968;28;20420;-79
2021/03/05 07:27:46;;;;;;;11.45;2.38;;;5.30;87.80;;;;;;5109607;28;20849;-78
2021/03/05 07:30:14;;;;;;;14.05;2.63;;;5.30;87.50;;;;;;5108854;28;20423;-79
2021/03/05 07:32:47;;;;;;;17.65;2.80;;;5.30;87.50;;;;;;5110434;27;20503;-79
2021/03/05 07:35:19;;;;;;;16.88;2.75;;;5.30;87.20;;;;;;5110741;28;20899;-77
2021/03/05 07:37:49;;;;;;;12.77;2.30;;;5.40;86.90;;;;;;5109560;28;20420;-80
2021/03/05 07:40:18;;;;;;;14.75;2.40;;;5.40;86.90;;;;;;5111282;28;20412;-77
2021/03/05 07:42:44;;;;;;;10.35;2.45;;;5.40;86.80;;;;;;5109775;28;20420;-80
2021/03/05 07:45:13;;;;;;;12.18;2.40;;;5.40;86.60;;;;;;5109476;28;20457;-79
2021/03/05 07:47:42;;;;;;;14.40;2.50;;;5.40;86.50;;;;;;5111299;27;20499;-77
2021/03/05 07:50:10;;;;;;;10.48;2.30;;;5.40;86.30;;;;;;5110227;28;20923;-78
2021/03/05 07:52:38;;;;;;;13.45;2.53;;;5.50;86.40;;;;;;5111301;28;20488;-76
2021/03/05 07:55:05;;;;;;;11.02;2.35;;;5.40;86.20;;;;;;5109789;28;20423;-76
2021/03/05 07:57:49;;;;;;;14.55;2.60;;;5.50;86.70;;;;;;5106469;28;20428;-75
2021/03/05 08:00:31;;;;;;;18.63;2.60;;;5.50;86.70;;;;;;5105035;28;20412;-75
2021/03/05 08:02:59;;;;;;;10.75;2.20;;;5.50;86.90;;;;;;5105828;28;20431;-72
2021/03/05 08:05:34;;;;;;;12.45;2.50;;;5.50;86.40;;;;;;5105092;28;20788;-73
2021/03/05 08:08:11;;;;;;;15.13;2.15;;;5.60;86.50;;;;;;5106730;28;20477;-76
2021/03/05 08:10:39;;;;;;;14.32;2.40;;;5.60;86.40;;;;;;5106887;28;20516;-76
2021/03/05 08:13:43;;;;;;;11.75;2.28;;;5.60;86.00;;;;;;5106148;28;20758;-76
2021/03/05 08:16:46;;;;;;;14.00;2.22;;;5.60;86.20;;;;;;5102308;28;20893;-74
2021/03/05 08:19:47;;;;;;;9.98;2.10;;;5.60;85.90;;;;;;5103936;28;20973;-76
2021/03/05 08:22:16;;;;;;;12.30;2.20;;;5.70;86.00;;;;;;5102866;27;20792;-75
2021/03/05 08:24:42;;;;;;;11.73;2.55;;;5.70;85.90;;;;;;5103045;28;20986;-75
2021/03/05 08:27:21;;;;;;;10.95;2.35;;;5.70;85.70;;;;;;5102978;28;20442;-77
2021/03/05 08:30:02;;;;;;;11.30;2.20;;;5.80;85.50;;;;;;5102142;28;20419;-75
2021/03/05 08:32:51;;;;;;;11.97;2.50;;;5.90;85.30;;;;;;5101774;28;20772;-78
2021/03/05 08:35:19;;;;;;;12.18;2.72;;;5.90;84.90;;;;;;5100019;28;20424;-74
2021/03/05 08:37:47;;;;;;;12.65;2.30;;;6.00;85.20;;;;;;5104113;28;20427;-74
2021/03/05 08:40:28;;;;;;;15.02;2.38;;;6.10;85.30;;;;;;5105513;28;20892;-76
2021/03/05 08:42:57;;;;;;;11.57;2.10;;;6.20;84.40;;;;;;5106115;28;20424;-74
2021/03/05 08:45:26;;;;;;;10.65;2.25;;;6.20;84.10;;;;;;5105774;28;20427;-74
2021/03/05 08:47:54;;;;;;;13.68;2.33;;;6.20;83.50;;;;;;5102959;28;20465;-72
2021/03/05 08:50:23;;;;;;;14.10;2.22;;;6.30;83.00;;;;;;5108313;28;20439;-75
2021/03/05 08:52:50;;;;;;;12.17;2.30;;;6.30;82.60;;;;;;5106128;28;20891;-76
2021/03/05 08:55:19;;;;;;;9.55;2.20;;;6.40;81.60;;;;;;5106208;28;20421;-76
2021/03/05 08:57:49;;;;;;;11.32;2.05;;;6.40;80.80;;;;;;5102873;28;20891;-75
2021/03/05 09:00:17;;;;;;;13.65;1.90;;;6.50;80.40;;;;;;5103748;28;20508;-77
2021/03/05 09:02:46;;;;;;;11.93;1.80;;;6.50;79.00;;;;;;5102657;28;20939;-76
2021/03/05 09:05:23;;;;;;;9.65;2.28;;;6.60;78.90;;;;;;5104210;28;20427;-74
2021/03/05 09:07:51;;;;;;;11.80;2.00;;;6.70;78.80;;;;;;5102783;28;20504;-73
2021/03/05 09:10:19;;;;;;;9.63;1.65;;;6.70;78.80;;;;;;5103913;28;20428;-75
2021/03/05 09:12:59;;;;;;;9.38;1.80;;;6.80;76.40;;;;;;5104708;28;20416;-76
2021/03/05 09:15:28;;;;;;;7.65;1.70;;;6.80;74.90;;;;;;5105660;28;20512;-74
2021/03/05 09:17:57;;;;;;;7.80;1.50;;;6.90;73.10;;;;;;5106489;28;20428;-77
2021/03/05 09:20:33;;;;;;;6.82;1.30;;;6.90;71.10;;;;;;5103082;28;20450;-77
2021/03/05 09:23:18;;;;;;;9.23;1.55;;;7.00;71.40;;;;;;5106215;28;20428;-77
2021/03/05 09:25:49;;;;;;;9.18;1.45;;;7.00;72.00;;;;;;5103995;28;20900;-75
2021/03/05 09:28:15;;;;;;;5.93;1.40;;;7.10;70.90;;;;;;5105071;28;20750;-76
2021/03/05 09:30:47;;;;;;;8.23;1.45;;;7.20;69.50;;;;;;5104270;28;20430;-76
2021/03/05 09:33:14;;;;;;;6.95;1.38;;;7.20;67.70;;;;;;5107073;28;20820;-78
2021/03/05 09:35:40;;;;;;;9.60;1.40;;;7.30;67.10;;;;;;5101368;28;20440;-78
2021/03/05 09:38:07;;;;;;;7.05;1.20;;;7.30;66.40;;;;;;5106832;28;20811;-75
2021/03/05 09:40:34;;;;;;;6.13;1.20;;;7.40;65.30;;;;;;5104654;28;20454;-75
2021/03/05 09:43:02;;;;;;;6.13;1.15;;;7.50;65.20;;;;;;5106788;28;20815;-80
2021/03/05 09:45:40;;;;;;;8.00;1.10;;;7.50;63.60;;;;;;5105488;28;20447;-77
2021/03/05 09:48:08;;;;;;;4.63;1.10;;;7.60;63.30;;;;;;5104738;28;20432;-79
2021/03/05 09:50:36;;;;;;;7.63;2.30;;;7.60;60.20;;;;;;5104686;28;20480;-74
2021/03/05 09:53:24;;;;;;;6.18;1.20;;;7.70;61.20;;;;;;5106559;28;20431;-74
2021/03/05 09:55:52;;;;;;;4.97;1.00;;;7.80;59.20;;;;;;5104480;28;20428;-75
2021/03/05 09:58:19;;;;;;;3.42;0.82;;;7.80;57.80;;;;;;5105407;28;20846;-75
2021/03/05 10:00:46;;;;;;;4.60;1.05;;;7.90;58.20;;;;;;5084487;28;566852;-79
2021/03/05 10:03:13;;;;;;;5.70;1.17;;;7.90;58.10;;;;;;5108328;28;20424;-75
2021/03/05 10:05:43;;;;;;;11.13;1.42;;;8.00;58.50;;;;;;5104809;28;20420;-79
2021/03/05 10:08:10;;;;;;;3.80;1.20;;;8.10;59.50;;;;;;5104048;28;20427;-74
2021/03/05 10:10:55;;;;;;;5.68;1.20;;;8.20;59.20;;;;;;5106061;28;20428;-74
2021/03/05 10:13:22;;;;;;;8.93;1.25;;;8.20;58.30;;;;;;5106631;28;20428;-76
2021/03/05 10:15:49;;;;;;;8.20;1.20;;;8.30;58.20;;;;;;5104654;28;20420;-76
2021/03/05 10:18:16;;;;;;;5.00;1.30;;;8.40;58.40;;;;;;5105203;28;20423;-75
2021/03/05 10:20:51;;;;;;;4.32;1.02;;;8.40;58.90;;;;;;5104567;28;20420;-74
2021/03/05 10:23:18;;;;;;;5.30;1.30;;;8.50;59.00;;;;;;5102382;28;20523;-76
2021/03/05 10:25:49;;;;;;;5.80;1.00;;;8.50;58.60;;;;;;5103526;28;20545;-74
2021/03/05 10:28:16;;;;;;;5.45;1.08;;;8.60;58.80;;;;;;5105721;28;20523;-79
2021/03/05 10:30:49;;;;;;;6.47;1.00;;;8.70;59.00;;;;;;5101629;28;20537;-76
2021/03/05 10:33:34;;;;;;;5.90;1.20;;;8.70;58.70;;;;;;5103777;28;20416;-75
2021/03/05 10:36:02;;;;;;;5.28;1.13;;;8.80;58.40;;;;;;5107418;28;20428;-78
2021/03/05 10:38:28;;;;;;;5.80;1.05;;;8.90;57.90;;;;;;5106996;28;20473;-76
2021/03/05 10:40:54;;;;;;;5.80;1.38;;;9.00;58.20;;;;;;5108366;28;20493;-78
2021/03/05 10:43:21;;;;;;;4.82;1.23;;;9.10;58.00;;;;;;5109216;28;20454;-78
2021/03/05 10:45:48;;;;;;;5.80;1.17;;;9.20;57.90;;;;;;5109698;28;20428;-76
2021/03/05 10:48:14;;;;;;;4.50;1.40;;;9.30;58.00;;;;;;5109252;28;20432;-76
2021/03/05 10:50:41;;;;;;;5.38;1.20;;;9.40;58.50;;;;;;5108209;28;20420;-78
2021/03/05 10:53:08;;;;;;;8.35;1.20;;;9.40;58.00;;;;;;5110006;28;20447;-77
2021/03/05 10:55:34;;;;;;;7.78;1.20;;;9.50;58.00;;;;;;5108378;28;20420;-75
2021/03/05 10:58:01;;;;;;;6.13;1.50;;;9.70;57.00;;;;;;5107606;28;20556;-76
2021/03/05 11:00:29;;;;;;;7.05;1.60;;;9.80;56.70;;;;;;5109140;28;20835;-77
2021/03/05 11:02:55;;;;;;;4.90;1.20;;;9.80;56.40;;;;;;5108337;28;20420;-78
2021/03/05 11:05:22;;;;;;;7.10;1.20;;;9.90;56.80;;;;;;5110361;28;20780;-77
2021/03/05 11:07:48;;;;;;;5.93;1.08;;;10.00;56.90;;;;;;5108154;28;20432;-75
2021/03/05 11:10:15;;;;;;;6.53;1.15;;;10.10;55.60;;;;;;5110413;28;20427;-79
2021/03/05 11:12:42;;;;;;;4.75;1.10;;;10.10;55.10;;;;;;5105657;28;20420;-76
2021/03/05 11:15:10;;;;;;;6.85;1.30;;;10.20;54.50;;;;;;5108033;28;20433;-78
2021/03/05 11:17:36;;;;;;;6.93;1.20;;;10.20;54.60;;;;;;5105464;28;20465;-78
2021/03/05 11:20:05;;;;;;;6.93;1.63;;;10.20;55.00;;;;;;5107606;28;20412;-77
2021/03/05 11:22:31;;;;;;;7.03;1.20;;;10.10;53.90;;;;;;5107384;28;20434;-80
2021/03/05 11:24:57;;;;;;;6.70;1.58;;;10.10;54.60;;;;;;5105079;28;20489;-76
2021/03/05 11:27:25;;;;;;;7.33;1.20;;;10.10;54.70;;;;;;5104430;28;20424;-80
2021/03/05 11:29:52;;;;;;;8.53;1.13;;;10.10;54.60;;;;;;5104641;28;20424;-75
2021/03/05 11:32:21;;;;;;;4.20;1.00;;;10.00;54.20;;;;;;5108763;28;20514;-78
2021/03/05 11:34:49;;;;;;;6.93;1.10;;;10.00;54.60;;;;;;5106298;28;20420;-80
2021/03/05 11:37:28;;;;;;;5.18;1.08;;;10.00;54.10;;;;;;5107029;28;20416;-81
2021/03/05 11:39:57;;;;;;;5.82;1.48;;;10.00;54.20;;;;;;5107266;28;20447;-77
2021/03/05 11:42:27;;;;;;;6.60;1.23;;;10.00;54.40;;;;;;5107155;28;20420;-78
2021/03/05 11:44:54;;;;;;;5.13;1.20;;;10.00;54.50;;;;;;5105514;28;20436;-76
2021/03/05 11:47:23;;;;;;;6.13;1.40;;;10.20;54.00;;;;;;5106630;27;20494;-78
2021/03/05 11:49:49;;;;;;;7.00;1.10;;;10.30;53.80;;;;;;5107045;28;20438;-81
2021/03/05 11:52:16;;;;;;;7.00;1.10;;;10.30;53.40;;;;;;5106355;28;20432;-78
2021/03/05 11:57:29;;;;;;;4.78;1.33;;;10.40;53.10;;;;;;5103449;28;20460;-76
2021/03/05 11:59:56;;;;;;;4.28;1.15;;;10.50;52.70;;;;;;5105515;28;20477;-77
2021/03/05 12:02:24;;;;;;;3.70;1.20;;;10.60;52.60;;;;;;5109049;28;20426;-77
2021/03/05 12:04:55;;;;;;;3.40;1.27;;;10.60;53.10;;;;;;5105808;28;20788;-80
2021/03/05 12:07:23;;;;;;;5.32;1.02;;;10.60;52.60;;;;;;5108073;28;20424;-79
2021/03/05 12:09:53;;;;;;;7.82;1.30;;;10.60;51.80;;;;;;5103245;28;20772;-82
2021/03/05 12:12:20;;;;;;;5.30;1.10;;;10.70;51.80;;;;;;5105543;28;20459;-79
2021/03/05 12:14:48;;;;;;;6.03;1.00;;;10.80;51.00;;;;;;5104431;28;20486;-77
2021/03/05 12:17:15;;;;;;;8.15;1.20;;;10.80;50.20;;;;;;5107847;28;20455;-75
2021/03/05 12:19:44;;;;;;;6.43;1.30;;;10.90;51.20;;;;;;5105935;28;20420;-78
2021/03/05 12:22:10;;;;;;;5.18;1.05;;;10.80;50.80;;;;;;5103681;28;20473;-78
2021/03/05 12:24:36;;;;;;;9.15;1.35;;;10.80;50.50;;;;;;5106701;28;20424;-77
2021/03/05 12:27:05;;;;;;;4.97;1.00;;;10.80;51.10;;;;;;5106657;28;20793;-73
2021/03/05 12:29:31;;;;;;;5.97;1.23;;;10.90;51.50;;;;;;5099863;28;20452;-75
2021/03/05 12:31:59;;;;;;;6.63;1.25;;;11.10;51.70;;;;;;5107500;28;20424;-78
2021/03/05 12:34:32;;;;;;;7.10;1.60;;;11.20;51.90;;;;;;5106991;28;20427;-77
2021/03/05 12:37:02;;;;;;;6.40;1.10;;;11.40;51.00;;;;;;5107400;28;20415;-77
2021/03/05 12:39:29;;;;;;;6.05;1.33;;;11.60;50.30;;;;;;5106374;27;20424;-77
2021/03/05 12:41:56;;;;;;;5.82;1.25;;;11.80;50.30;;;;;;5106780;28;20415;-80
2021/03/05 12:44:26;;;;;;;6.90;1.57;;;12.00;50.00;;;;;;5102436;28;20420;-78
2021/03/05 12:46:52;;;;;;;5.68;1.10;;;12.20;49.30;;;;;;5107545;28;20527;-74
2021/03/05 12:49:20;;;;;;;5.88;0.95;;;12.40;49.00;;;;;;5104496;28;20451;-77
2021/03/05 12:51:48;;;;;;;4.72;1.10;;;12.60;49.00;;;;;;5107199;28;20416;-74
2021/03/05 12:54:17;;;;;;;7.05;1.40;;;12.90;46.40;;;;;;5106092;28;20434;-75
2021/03/05 12:56:43;;;;;;;5.82;1.15;;;13.00;46.40;;;;;;5103792;28;20456;-76
2021/03/05 12:59:10;;;;;;;5.65;1.10;;;13.00;45.40;;;;;;5103641;28;20419;-78
2021/03/05 13:01:39;;;;;;;6.82;1.40;;;12.90;45.40;;;;;;5108702;28;20420;-76
2021/03/05 13:04:06;;;;;;;6.82;1.27;;;12.80;45.80;;;;;;5103179;28;20545;-77
2021/03/05 13:06:34;;;;;;;4.75;1.30;;;12.80;46.40;;;;;;5105367;28;20438;-77